sensor_id;sensor_type;location;lat;lon;timestamp;P1;durP1;ratioP1;P2;durP2;ratioP2
18320;SDS011;54904;54.350;18.664;2023-07-29T00:01:59;2.60;;;2.40;;
18320;SDS011;54904;54.350;18.664;2023-07-29T00:04:26;2.53;;;2.33;;
18320;SDS011;54904;54.350;18.664;2023-07-29T00:06:53;2.75;;;2.55;;
18320;SDS011;54904;54.350;18.664;2023-07-29T00:09:21;2.47;;;2.28;;
18320;SDS011;54904;54.350;18.664;2023-07-29T00:11:48;2.88;;;2.58;;
18320;SDS011;54904;54.350;18.664;2023-07-29T00:14:15;2.97;;;2.67;;
18320;SDS011;54904;54.350;18.664;2023-07-29T00:16:42;3.33;;;3.00;;
18320;SDS011;54904;54.350;18.664;2023-07-29T00:19:10;3.55;;;3.25;;
18320;SDS011;54904;54.350;18.664;2023-07-29T00:21:38;3.45;;;3.15;;
18320;SDS011;54904;54.350;18.664;2023-07-29T00:24:06;4.05;;;2.78;;
18320;SDS011;54904;54.350;18.664;2023-07-29T00:26:33;3.42;;;3.13;;
18320;SDS011;54904;54.350;18.664;2023-07-29T00:29:00;2.80;;;2.60;;
18320;SDS011;54904;54.350;18.664;2023-07-29T00:31:27;2.80;;;2.60;;
18320;SDS011;54904;54.350;18.664;2023-07-29T00:33:56;2.70;;;2.50;;
18320;SDS011;54904;54.350;18.664;2023-07-29T00:36:25;2.53;;;2.33;;
18320;SDS011;54904;54.350;18.664;2023-07-29T00:38:52;2.33;;;2.13;;
18320;SDS011;54904;54.350;18.664;2023-07-29T00:41:22;2.63;;;2.30;;
18320;SDS011;54904;54.350;18.664;2023-07-29T00:43:50;2.78;;;2.58;;
18320;SDS011;54904;54.350;18.664;2023-07-29T00:46:17;2.75;;;2.55;;
18320;SDS011;54904;54.350;18.664;2023-07-29T00:48:44;2.50;;;2.30;;
18320;SDS011;54904;54.350;18.664;2023-07-29T00:51:11;2.42;;;2.22;;
18320;SDS011;54904;54.350;18.664;2023-07-29T00:53:40;2.50;;;2.30;;
18320;SDS011;54904;54.350;18.664;2023-07-29T00:56:07;2.00;;;1.90;;
18320;SDS011;54904;54.350;18.664;2023-07-29T00:58:34;3.13;;;2.92;;
18320;SDS011;54904;54.350;18.664;2023-07-29T01:01:01;2.80;;;2.60;;
18320;SDS011;54904;54.350;18.664;2023-07-29T01:03:28;2.47;;;2.28;;
18320;SDS011;54904;54.350;18.664;2023-07-29T01:05:59;2.78;;;2.58;;
18320;SDS011;54904;54.350;18.664;2023-07-29T01:08:36;2.45;;;2.00;;
18320;SDS011;54904;54.350;18.664;2023-07-29T01:11:15;2.17;;;2.08;;
18320;SDS011;54904;54.350;18.664;2023-07-29T01:13:53;2.40;;;2.20;;
18320;SDS011;54904;54.350;18.664;2023-07-29T01:16:29;2.17;;;1.98;;
18320;SDS011;54904;54.350;18.664;2023-07-29T01:19:01;2.38;;;2.25;;
18320;SDS011;54904;54.350;18.664;2023-07-29T01:21:32;2.97;;;2.22;;
18320;SDS011;54904;54.350;18.664;2023-07-29T01:24:02;2.08;;;1.90;;
18320;SDS011;54904;54.350;18.664;2023-07-29T01:26:30;2.50;;;2.30;;
18320;SDS011;54904;54.350;18.664;2023-07-29T01:28:58;2.67;;;2.47;;
18320;SDS011;54904;54.350;18.664;2023-07-29T01:31:27;2.50;;;2.30;;
18320;SDS011;54904;54.350;18.664;2023-07-29T01:34:07;3.50;;;3.20;;
18320;SDS011;54904;54.350;18.664;2023-07-29T01:36:43;3.72;;;3.03;;
18320;SDS011;54904;54.350;18.664;2023-07-29T01:39:14;2.80;;;2.55;;
18320;SDS011;54904;54.350;18.664;2023-07-29T01:41:43;3.00;;;2.63;;
18320;SDS011;54904;54.350;18.664;2023-07-29T01:44:11;2.40;;;2.20;;
18320;SDS011;54904;54.350;18.664;2023-07-29T01:46:40;4.03;;;2.38;;
18320;SDS011;54904;54.350;18.664;2023-07-29T01:49:07;2.17;;;2.08;;
18320;SDS011;54904;54.350;18.664;2023-07-29T01:51:34;2.17;;;1.98;;
18320;SDS011;54904;54.350;18.664;2023-07-29T01:54:01;1.80;;;1.70;;
18320;SDS011;54904;54.350;18.664;2023-07-29T01:56:29;2.15;;;2.05;;
18320;SDS011;54904;54.350;18.664;2023-07-29T01:58:57;2.00;;;1.90;;
18320;SDS011;54904;54.350;18.664;2023-07-29T02:01:24;3.50;;;2.47;;
18320;SDS011;54904;54.350;18.664;2023-07-29T02:03:51;2.50;;;2.30;;
18320;SDS011;54904;54.350;18.664;2023-07-29T02:06:20;2.28;;;2.10;;
18320;SDS011;54904;54.350;18.664;2023-07-29T02:08:48;2.20;;;2.08;;
18320;SDS011;54904;54.350;18.664;2023-07-29T02:11:15;2.05;;;1.85;;
18320;SDS011;54904;54.350;18.664;2023-07-29T02:13:43;2.63;;;2.47;;
18320;SDS011;54904;54.350;18.664;2023-07-29T02:16:10;2.40;;;2.20;;
18320;SDS011;54904;54.350;18.664;2023-07-29T02:18:37;2.50;;;2.30;;
18320;SDS011;54904;54.350;18.664;2023-07-29T02:21:04;2.47;;;2.28;;
18320;SDS011;54904;54.350;18.664;2023-07-29T02:23:32;2.70;;;2.50;;
18320;SDS011;54904;54.350;18.664;2023-07-29T02:25:59;4.30;;;2.15;;
18320;SDS011;54904;54.350;18.664;2023-07-29T02:28:26;2.78;;;2.53;;
18320;SDS011;54904;54.350;18.664;2023-07-29T02:33:38;2.60;;;2.40;;
18320;SDS011;54904;54.350;18.664;2023-07-29T02:36:05;2.80;;;2.60;;
18320;SDS011;54904;54.350;18.664;2023-07-29T02:38:33;2.00;;;1.90;;
18320;SDS011;54904;54.350;18.664;2023-07-29T02:41:00;3.10;;;2.80;;
18320;SDS011;54904;54.350;18.664;2023-07-29T02:43:27;2.40;;;2.25;;
18320;SDS011;54904;54.350;18.664;2023-07-29T02:45:54;2.60;;;2.40;;
18320;SDS011;54904;54.350;18.664;2023-07-29T02:48:23;2.28;;;2.17;;
18320;SDS011;54904;54.350;18.664;2023-07-29T02:50:51;2.10;;;2.00;;
18320;SDS011;54904;54.350;18.664;2023-07-29T02:53:18;2.13;;;2.03;;
18320;SDS011;54904;54.350;18.664;2023-07-29T02:55:45;2.10;;;2.00;;
18320;SDS011;54904;54.350;18.664;2023-07-29T02:58:12;2.20;;;2.10;;
18320;SDS011;54904;54.350;18.664;2023-07-29T03:00:39;2.10;;;2.00;;
18320;SDS011;54904;54.350;18.664;2023-07-29T03:03:07;2.63;;;2.20;;
18320;SDS011;54904;54.350;18.664;2023-07-29T03:05:36;2.03;;;1.92;;
18320;SDS011;54904;54.350;18.664;2023-07-29T03:08:03;1.95;;;1.85;;
18320;SDS011;54904;54.350;18.664;2023-07-29T03:10:30;1.98;;;1.88;;
18320;SDS011;54904;54.350;18.664;2023-07-29T03:12:58;1.98;;;1.88;;
18320;SDS011;54904;54.350;18.664;2023-07-29T03:15:25;1.90;;;1.80;;
18320;SDS011;54904;54.350;18.664;2023-07-29T03:17:52;1.85;;;1.75;;
18320;SDS011;54904;54.350;18.664;2023-07-29T03:20:19;2.15;;;2.05;;
18320;SDS011;54904;54.350;18.664;2023-07-29T03:22:48;2.50;;;2.30;;
18320;SDS011;54904;54.350;18.664;2023-07-29T03:25:15;2.13;;;2.00;;
18320;SDS011;54904;54.350;18.664;2023-07-29T03:27:42;1.98;;;1.88;;
18320;SDS011;54904;54.350;18.664;2023-07-29T03:30:10;1.67;;;1.58;;
18320;SDS011;54904;54.350;18.664;2023-07-29T03:32:39;1.98;;;1.88;;
18320;SDS011;54904;54.350;18.664;2023-07-29T03:35:11;2.85;;;2.53;;
18320;SDS011;54904;54.350;18.664;2023-07-29T03:37:38;2.42;;;2.33;;
18320;SDS011;54904;54.350;18.664;2023-07-29T03:40:08;2.38;;;2.17;;
18320;SDS011;54904;54.350;18.664;2023-07-29T03:42:35;2.20;;;2.00;;
18320;SDS011;54904;54.350;18.664;2023-07-29T03:45:03;2.40;;;2.30;;
18320;SDS011;54904;54.350;18.664;2023-07-29T03:47:30;2.38;;;1.88;;
18320;SDS011;54904;54.350;18.664;2023-07-29T03:49:58;3.22;;;2.58;;
18320;SDS011;54904;54.350;18.664;2023-07-29T03:52:26;1.92;;;1.83;;
18320;SDS011;54904;54.350;18.664;2023-07-29T03:54:53;2.03;;;1.92;;
18320;SDS011;54904;54.350;18.664;2023-07-29T03:57:21;1.83;;;1.73;;
18320;SDS011;54904;54.350;18.664;2023-07-29T03:59:48;2.22;;;2.05;;
18320;SDS011;54904;54.350;18.664;2023-07-29T04:02:15;3.65;;;1.80;;
18320;SDS011;54904;54.350;18.664;2023-07-29T04:04:42;2.15;;;2.05;;
18320;SDS011;54904;54.350;18.664;2023-07-29T04:07:13;2.17;;;2.08;;
18320;SDS011;54904;54.350;18.664;2023-07-29T04:09:40;2.30;;;2.13;;
18320;SDS011;54904;54.350;18.664;2023-07-29T04:12:09;2.13;;;2.00;;
18320;SDS011;54904;54.350;18.664;2023-07-29T04:14:37;1.63;;;1.52;;
18320;SDS011;54904;54.350;18.664;2023-07-29T04:17:04;1.60;;;1.50;;
18320;SDS011;54904;54.350;18.664;2023-07-29T04:19:33;2.13;;;2.00;;
18320;SDS011;54904;54.350;18.664;2023-07-29T04:22:00;1.92;;;1.80;;
18320;SDS011;54904;54.350;18.664;2023-07-29T04:24:27;1.50;;;1.40;;
18320;SDS011;54904;54.350;18.664;2023-07-29T04:26:54;2.25;;;2.05;;
18320;SDS011;54904;54.350;18.664;2023-07-29T04:29:21;1.65;;;1.55;;
18320;SDS011;54904;54.350;18.664;2023-07-29T04:31:50;1.50;;;1.40;;
18320;SDS011;54904;54.350;18.664;2023-07-29T04:34:17;2.00;;;1.88;;
18320;SDS011;54904;54.350;18.664;2023-07-29T04:36:44;1.73;;;1.63;;
18320;SDS011;54904;54.350;18.664;2023-07-29T04:39:12;1.52;;;1.42;;
18320;SDS011;54904;54.350;18.664;2023-07-29T04:41:39;1.20;;;1.20;;
18320;SDS011;54904;54.350;18.664;2023-07-29T04:44:06;2.08;;;1.88;;
18320;SDS011;54904;54.350;18.664;2023-07-29T04:46:33;2.50;;;2.15;;
18320;SDS011;54904;54.350;18.664;2023-07-29T04:49:01;2.28;;;2.05;;
18320;SDS011;54904;54.350;18.664;2023-07-29T04:51:29;1.88;;;1.77;;
18320;SDS011;54904;54.350;18.664;2023-07-29T04:53:57;2.00;;;1.90;;
18320;SDS011;54904;54.350;18.664;2023-07-29T04:56:24;2.10;;;2.00;;
18320;SDS011;54904;54.350;18.664;2023-07-29T04:58:52;2.15;;;2.05;;
18320;SDS011;54904;54.350;18.664;2023-07-29T05:01:19;1.70;;;1.60;;
18320;SDS011;54904;54.350;18.664;2023-07-29T05:03:46;1.85;;;1.75;;
18320;SDS011;54904;54.350;18.664;2023-07-29T05:06:15;1.90;;;1.80;;
18320;SDS011;54904;54.350;18.664;2023-07-29T05:08:42;2.05;;;1.95;;
18320;SDS011;54904;54.350;18.664;2023-07-29T05:11:09;1.30;;;1.30;;
18320;SDS011;54904;54.350;18.664;2023-07-29T05:13:36;1.85;;;1.75;;
18320;SDS011;54904;54.350;18.664;2023-07-29T05:16:04;2.20;;;2.10;;
18320;SDS011;54904;54.350;18.664;2023-07-29T05:18:32;1.50;;;1.50;;
18320;SDS011;54904;54.350;18.664;2023-07-29T05:20:59;2.10;;;2.00;;
18320;SDS011;54904;54.350;18.664;2023-07-29T05:23:28;1.38;;;1.30;;
18320;SDS011;54904;54.350;18.664;2023-07-29T05:25:55;1.40;;;1.40;;
18320;SDS011;54904;54.350;18.664;2023-07-29T05:28:22;1.50;;;1.40;;
18320;SDS011;54904;54.350;18.664;2023-07-29T05:30:49;1.58;;;1.48;;
18320;SDS011;54904;54.350;18.664;2023-07-29T05:33:16;1.40;;;1.40;;
18320;SDS011;54904;54.350;18.664;2023-07-29T05:35:43;1.73;;;1.60;;
18320;SDS011;54904;54.350;18.664;2023-07-29T05:38:13;3.08;;;1.20;;
18320;SDS011;54904;54.350;18.664;2023-07-29T05:40:41;1.45;;;1.35;;
18320;SDS011;54904;54.350;18.664;2023-07-29T05:43:08;0.80;;;0.80;;
18320;SDS011;54904;54.350;18.664;2023-07-29T05:45:36;0.90;;;0.90;;
18320;SDS011;54904;54.350;18.664;2023-07-29T05:48:03;1.13;;;1.13;;
18320;SDS011;54904;54.350;18.664;2023-07-29T05:50:30;0.95;;;0.95;;
18320;SDS011;54904;54.350;18.664;2023-07-29T05:52:58;1.25;;;1.25;;
18320;SDS011;54904;54.350;18.664;2023-07-29T05:55:25;1.70;;;1.60;;
18320;SDS011;54904;54.350;18.664;2023-07-29T05:57:53;1.40;;;1.40;;
18320;SDS011;54904;54.350;18.664;2023-07-29T06:00:21;1.77;;;1.67;;
18320;SDS011;54904;54.350;18.664;2023-07-29T06:02:48;1.20;;;1.20;;
18320;SDS011;54904;54.350;18.664;2023-07-29T06:05:19;2.05;;;1.90;;
18320;SDS011;54904;54.350;18.664;2023-07-29T06:07:46;1.45;;;1.45;;
18320;SDS011;54904;54.350;18.664;2023-07-29T06:10:14;1.90;;;1.80;;
18320;SDS011;54904;54.350;18.664;2023-07-29T06:12:43;1.90;;;1.80;;
18320;SDS011;54904;54.350;18.664;2023-07-29T06:15:12;1.85;;;1.75;;
18320;SDS011;54904;54.350;18.664;2023-07-29T06:17:40;1.83;;;1.73;;
18320;SDS011;54904;54.350;18.664;2023-07-29T06:20:08;2.28;;;2.08;;
18320;SDS011;54904;54.350;18.664;2023-07-29T06:22:35;2.20;;;2.10;;
18320;SDS011;54904;54.350;18.664;2023-07-29T06:25:03;2.65;;;2.45;;
18320;SDS011;54904;54.350;18.664;2023-07-29T06:27:31;2.53;;;2.42;;
18320;SDS011;54904;54.350;18.664;2023-07-29T06:29:58;2.30;;;2.20;;
18320;SDS011;54904;54.350;18.664;2023-07-29T06:32:26;2.17;;;2.08;;
18320;SDS011;54904;54.350;18.664;2023-07-29T06:34:53;2.72;;;2.42;;
18320;SDS011;54904;54.350;18.664;2023-07-29T06:37:20;2.08;;;1.98;;
18320;SDS011;54904;54.350;18.664;2023-07-29T06:39:47;1.67;;;1.58;;
18320;SDS011;54904;54.350;18.664;2023-07-29T06:42:14;1.48;;;1.40;;
18320;SDS011;54904;54.350;18.664;2023-07-29T06:44:41;1.00;;;1.00;;
18320;SDS011;54904;54.350;18.664;2023-07-29T06:47:11;1.40;;;1.30;;
18320;SDS011;54904;54.350;18.664;2023-07-29T06:49:39;1.30;;;1.30;;
18320;SDS011;54904;54.350;18.664;2023-07-29T06:52:06;1.30;;;1.30;;
18320;SDS011;54904;54.350;18.664;2023-07-29T06:54:36;2.60;;;1.80;;
18320;SDS011;54904;54.350;18.664;2023-07-29T06:57:03;2.20;;;2.00;;
18320;SDS011;54904;54.350;18.664;2023-07-29T06:59:31;1.67;;;1.58;;
18320;SDS011;54904;54.350;18.664;2023-07-29T07:01:58;1.50;;;1.40;;
18320;SDS011;54904;54.350;18.664;2023-07-29T07:04:25;1.48;;;1.38;;
18320;SDS011;54904;54.350;18.664;2023-07-29T07:06:53;1.67;;;1.58;;
18320;SDS011;54904;54.350;18.664;2023-07-29T07:09:21;1.10;;;1.10;;
18320;SDS011;54904;54.350;18.664;2023-07-29T07:11:48;1.48;;;1.38;;
18320;SDS011;54904;54.350;18.664;2023-07-29T07:14:15;0.90;;;0.90;;
18320;SDS011;54904;54.350;18.664;2023-07-29T07:16:42;1.45;;;1.35;;
18320;SDS011;54904;54.350;18.664;2023-07-29T07:19:09;2.65;;;1.80;;
18320;SDS011;54904;54.350;18.664;2023-07-29T07:21:37;1.80;;;1.70;;
18320;SDS011;54904;54.350;18.664;2023-07-29T07:24:05;1.25;;;1.25;;
18320;SDS011;54904;54.350;18.664;2023-07-29T07:26:32;1.83;;;1.73;;
18320;SDS011;54904;54.350;18.664;2023-07-29T07:28:59;2.08;;;1.95;;
18320;SDS011;54904;54.350;18.664;2023-07-29T07:31:32;1.88;;;1.77;;
18320;SDS011;54904;54.350;18.664;2023-07-29T07:34:00;1.88;;;1.77;;
18320;SDS011;54904;54.350;18.664;2023-07-29T07:36:29;1.30;;;1.30;;
18320;SDS011;54904;54.350;18.664;2023-07-29T07:38:56;2.35;;;2.15;;
18320;SDS011;54904;54.350;18.664;2023-07-29T07:41:24;2.15;;;2.05;;
18320;SDS011;54904;54.350;18.664;2023-07-29T07:43:52;2.00;;;1.90;;
18320;SDS011;54904;54.350;18.664;2023-07-29T07:46:19;3.38;;;2.03;;
18320;SDS011;54904;54.350;18.664;2023-07-29T07:48:46;2.03;;;1.92;;
18320;SDS011;54904;54.350;18.664;2023-07-29T07:51:13;2.92;;;2.10;;
18320;SDS011;54904;54.350;18.664;2023-07-29T07:53:40;1.85;;;1.75;;
18320;SDS011;54904;54.350;18.664;2023-07-29T07:56:07;1.63;;;1.52;;
18320;SDS011;54904;54.350;18.664;2023-07-29T07:58:36;2.20;;;2.00;;
18320;SDS011;54904;54.350;18.664;2023-07-29T08:01:03;1.80;;;1.70;;
18320;SDS011;54904;54.350;18.664;2023-07-29T08:03:30;1.70;;;1.60;;
18320;SDS011;54904;54.350;18.664;2023-07-29T08:05:57;1.30;;;1.30;;
18320;SDS011;54904;54.350;18.664;2023-07-29T08:08:25;4.22;;;2.13;;
18320;SDS011;54904;54.350;18.664;2023-07-29T08:10:52;4.72;;;2.22;;
18320;SDS011;54904;54.350;18.664;2023-07-29T08:13:20;2.20;;;2.00;;
18320;SDS011;54904;54.350;18.664;2023-07-29T08:15:48;1.60;;;1.50;;
18320;SDS011;54904;54.350;18.664;2023-07-29T08:18:17;2.53;;;2.10;;
18320;SDS011;54904;54.350;18.664;2023-07-29T08:20:51;1.50;;;1.40;;
18320;SDS011;54904;54.350;18.664;2023-07-29T08:23:19;1.70;;;1.60;;
18320;SDS011;54904;54.350;18.664;2023-07-29T08:25:50;1.80;;;1.70;;
18320;SDS011;54904;54.350;18.664;2023-07-29T08:28:18;1.88;;;1.48;;
18320;SDS011;54904;54.350;18.664;2023-07-29T08:30:45;1.85;;;1.75;;
18320;SDS011;54904;54.350;18.664;2023-07-29T08:33:14;1.70;;;1.60;;
18320;SDS011;54904;54.350;18.664;2023-07-29T08:35:41;1.83;;;1.73;;
18320;SDS011;54904;54.350;18.664;2023-07-29T08:38:08;1.67;;;1.58;;
18320;SDS011;54904;54.350;18.664;2023-07-29T08:40:36;1.52;;;1.40;;
18320;SDS011;54904;54.350;18.664;2023-07-29T08:43:08;1.45;;;1.38;;
18320;SDS011;54904;54.350;18.664;2023-07-29T08:45:37;1.63;;;1.42;;
18320;SDS011;54904;54.350;18.664;2023-07-29T08:48:07;1.23;;;1.23;;
18320;SDS011;54904;54.350;18.664;2023-07-29T08:50:37;1.60;;;1.50;;
18320;SDS011;54904;54.350;18.664;2023-07-29T08:53:05;1.42;;;1.30;;
18320;SDS011;54904;54.350;18.664;2023-07-29T08:55:32;1.52;;;1.33;;
18320;SDS011;54904;54.350;18.664;2023-07-29T08:57:59;1.20;;;1.20;;
18320;SDS011;54904;54.350;18.664;2023-07-29T09:00:27;2.03;;;1.42;;
18320;SDS011;54904;54.350;18.664;2023-07-29T09:02:54;1.33;;;1.33;;
18320;SDS011;54904;54.350;18.664;2023-07-29T09:05:23;1.75;;;1.48;;
18320;SDS011;54904;54.350;18.664;2023-07-29T09:07:51;2.60;;;1.50;;
18320;SDS011;54904;54.350;18.664;2023-07-29T09:10:21;1.73;;;1.60;;
18320;SDS011;54904;54.350;18.664;2023-07-29T09:12:49;1.85;;;1.60;;
18320;SDS011;54904;54.350;18.664;2023-07-29T09:15:25;1.48;;;1.40;;
18320;SDS011;54904;54.350;18.664;2023-07-29T09:17:55;1.50;;;1.40;;
18320;SDS011;54904;54.350;18.664;2023-07-29T09:20:26;1.55;;;1.42;;
18320;SDS011;54904;54.350;18.664;2023-07-29T09:22:55;1.30;;;1.20;;
18320;SDS011;54904;54.350;18.664;2023-07-29T09:25:25;1.15;;;1.15;;
18320;SDS011;54904;54.350;18.664;2023-07-29T09:27:56;1.48;;;1.38;;
18320;SDS011;54904;54.350;18.664;2023-07-29T09:30:26;1.55;;;1.45;;
18320;SDS011;54904;54.350;18.664;2023-07-29T09:32:54;1.65;;;1.55;;
18320;SDS011;54904;54.350;18.664;2023-07-29T09:35:22;1.80;;;1.70;;
18320;SDS011;54904;54.350;18.664;2023-07-29T09:37:50;1.75;;;1.52;;
18320;SDS011;54904;54.350;18.664;2023-07-29T09:40:19;1.48;;;1.42;;
18320;SDS011;54904;54.350;18.664;2023-07-29T09:42:49;1.40;;;1.30;;
18320;SDS011;54904;54.350;18.664;2023-07-29T09:45:23;1.60;;;1.50;;
18320;SDS011;54904;54.350;18.664;2023-07-29T09:47:51;1.70;;;1.60;;
18320;SDS011;54904;54.350;18.664;2023-07-29T09:50:20;1.48;;;1.40;;
18320;SDS011;54904;54.350;18.664;2023-07-29T09:52:50;1.45;;;1.38;;
18320;SDS011;54904;54.350;18.664;2023-07-29T09:55:20;1.20;;;1.15;;
18320;SDS011;54904;54.350;18.664;2023-07-29T09:57:52;1.10;;;1.10;;
18320;SDS011;54904;54.350;18.664;2023-07-29T10:00:20;1.25;;;1.25;;
18320;SDS011;54904;54.350;18.664;2023-07-29T10:02:49;1.60;;;1.50;;
18320;SDS011;54904;54.350;18.664;2023-07-29T10:05:20;1.67;;;1.58;;
18320;SDS011;54904;54.350;18.664;2023-07-29T10:07:48;1.60;;;1.50;;
18320;SDS011;54904;54.350;18.664;2023-07-29T10:10:17;1.35;;;1.25;;
18320;SDS011;54904;54.350;18.664;2023-07-29T10:12:45;1.52;;;1.42;;
18320;SDS011;54904;54.350;18.664;2023-07-29T10:15:13;1.10;;;1.10;;
18320;SDS011;54904;54.350;18.664;2023-07-29T10:17:40;1.35;;;1.27;;
18320;SDS011;54904;54.350;18.664;2023-07-29T10:20:08;1.52;;;1.42;;
18320;SDS011;54904;54.350;18.664;2023-07-29T10:22:37;1.60;;;1.50;;
18320;SDS011;54904;54.350;18.664;2023-07-29T10:25:07;1.40;;;1.30;;
18320;SDS011;54904;54.350;18.664;2023-07-29T10:27:39;1.88;;;1.40;;
18320;SDS011;54904;54.350;18.664;2023-07-29T10:30:12;1.58;;;1.48;;
18320;SDS011;54904;54.350;18.664;2023-07-29T10:32:41;1.42;;;1.33;;
18320;SDS011;54904;54.350;18.664;2023-07-29T10:35:10;1.30;;;1.30;;
18320;SDS011;54904;54.350;18.664;2023-07-29T10:37:37;1.25;;;1.25;;
18320;SDS011;54904;54.350;18.664;2023-07-29T10:40:06;1.70;;;1.48;;
18320;SDS011;54904;54.350;18.664;2023-07-29T10:42:34;1.67;;;1.58;;
18320;SDS011;54904;54.350;18.664;2023-07-29T10:47:57;1.70;;;1.60;;
18320;SDS011;54904;54.350;18.664;2023-07-29T10:50:24;3.15;;;1.52;;
18320;SDS011;54904;54.350;18.664;2023-07-29T10:52:55;2.05;;;1.55;;
18320;SDS011;54904;54.350;18.664;2023-07-29T10:55:27;1.33;;;1.23;;
18320;SDS011;54904;54.350;18.664;2023-07-29T10:58:08;2.40;;;1.85;;
18320;SDS011;54904;54.350;18.664;2023-07-29T11:00:38;2.03;;;1.83;;
18320;SDS011;54904;54.350;18.664;2023-07-29T11:03:09;1.80;;;1.70;;
18320;SDS011;54904;54.350;18.664;2023-07-29T11:05:50;1.83;;;1.73;;
18320;SDS011;54904;54.350;18.664;2023-07-29T11:08:18;2.00;;;1.90;;
18320;SDS011;54904;54.350;18.664;2023-07-29T11:11:01;1.90;;;1.80;;
18320;SDS011;54904;54.350;18.664;2023-07-29T11:13:31;4.38;;;2.03;;
18320;SDS011;54904;54.350;18.664;2023-07-29T11:15:59;1.63;;;1.52;;
18320;SDS011;54904;54.350;18.664;2023-07-29T11:18:29;1.95;;;1.85;;
18320;SDS011;54904;54.350;18.664;2023-07-29T11:20:57;1.92;;;1.83;;
18320;SDS011;54904;54.350;18.664;2023-07-29T11:23:28;1.80;;;1.70;;
18320;SDS011;54904;54.350;18.664;2023-07-29T11:25:57;1.75;;;1.65;;
18320;SDS011;54904;54.350;18.664;2023-07-29T11:28:25;1.80;;;1.70;;
18320;SDS011;54904;54.350;18.664;2023-07-29T11:30:53;1.60;;;1.50;;
18320;SDS011;54904;54.350;18.664;2023-07-29T11:33:22;1.70;;;1.60;;
18320;SDS011;54904;54.350;18.664;2023-07-29T11:35:52;1.58;;;1.50;;
18320;SDS011;54904;54.350;18.664;2023-07-29T11:38:19;1.40;;;1.30;;
18320;SDS011;54904;54.350;18.664;2023-07-29T11:40:54;1.40;;;1.30;;
18320;SDS011;54904;54.350;18.664;2023-07-29T11:43:25;1.23;;;1.13;;
18320;SDS011;54904;54.350;18.664;2023-07-29T11:45:53;1.80;;;1.70;;
18320;SDS011;54904;54.350;18.664;2023-07-29T11:48:26;5.57;;;1.98;;
18320;SDS011;54904;54.350;18.664;2023-07-29T11:50:55;2.60;;;2.40;;
18320;SDS011;54904;54.350;18.664;2023-07-29T11:53:25;2.72;;;2.47;;
18320;SDS011;54904;54.350;18.664;2023-07-29T11:55:53;2.40;;;2.20;;
18320;SDS011;54904;54.350;18.664;2023-07-29T11:58:21;2.00;;;1.90;;
18320;SDS011;54904;54.350;18.664;2023-07-29T12:00:48;2.10;;;2.00;;
18320;SDS011;54904;54.350;18.664;2023-07-29T12:03:15;2.08;;;1.98;;
18320;SDS011;54904;54.350;18.664;2023-07-29T12:05:44;3.47;;;2.10;;
18320;SDS011;54904;54.350;18.664;2023-07-29T12:08:12;1.70;;;1.60;;
18320;SDS011;54904;54.350;18.664;2023-07-29T12:10:40;1.60;;;1.50;;
18320;SDS011;54904;54.350;18.664;2023-07-29T12:13:07;1.45;;;1.45;;
18320;SDS011;54904;54.350;18.664;2023-07-29T12:15:37;2.45;;;1.50;;
18320;SDS011;54904;54.350;18.664;2023-07-29T12:18:05;1.25;;;1.25;;
18320;SDS011;54904;54.350;18.664;2023-07-29T12:20:32;1.60;;;1.50;;
18320;SDS011;54904;54.350;18.664;2023-07-29T12:23:00;1.67;;;1.58;;
18320;SDS011;54904;54.350;18.664;2023-07-29T12:25:29;1.75;;;1.65;;
18320;SDS011;54904;54.350;18.664;2023-07-29T12:27:56;1.80;;;1.70;;
18320;SDS011;54904;54.350;18.664;2023-07-29T12:30:29;1.38;;;1.35;;
18320;SDS011;54904;54.350;18.664;2023-07-29T12:32:56;1.80;;;1.70;;
18320;SDS011;54904;54.350;18.664;2023-07-29T12:35:23;1.80;;;1.40;;
18320;SDS011;54904;54.350;18.664;2023-07-29T12:38:00;3.63;;;1.60;;
18320;SDS011;54904;54.350;18.664;2023-07-29T12:40:28;2.15;;;1.95;;
18320;SDS011;54904;54.350;18.664;2023-07-29T12:42:55;1.75;;;1.65;;
18320;SDS011;54904;54.350;18.664;2023-07-29T12:45:23;2.13;;;1.92;;
18320;SDS011;54904;54.350;18.664;2023-07-29T12:47:52;1.95;;;1.85;;
18320;SDS011;54904;54.350;18.664;2023-07-29T12:50:19;1.80;;;1.70;;
18320;SDS011;54904;54.350;18.664;2023-07-29T12:52:47;1.55;;;1.50;;
18320;SDS011;54904;54.350;18.664;2023-07-29T12:55:14;1.50;;;1.40;;
18320;SDS011;54904;54.350;18.664;2023-07-29T12:57:43;1.60;;;1.50;;
18320;SDS011;54904;54.350;18.664;2023-07-29T13:00:10;1.63;;;1.52;;
18320;SDS011;54904;54.350;18.664;2023-07-29T13:02:38;1.38;;;1.38;;
18320;SDS011;54904;54.350;18.664;2023-07-29T13:05:08;1.85;;;1.70;;
18320;SDS011;54904;54.350;18.664;2023-07-29T13:07:37;1.88;;;1.77;;
18320;SDS011;54904;54.350;18.664;2023-07-29T13:10:05;1.92;;;1.50;;
18320;SDS011;54904;54.350;18.664;2023-07-29T13:12:33;1.58;;;1.48;;
18320;SDS011;54904;54.350;18.664;2023-07-29T13:15:01;1.75;;;1.60;;
18320;SDS011;54904;54.350;18.664;2023-07-29T13:17:32;1.70;;;1.60;;
18320;SDS011;54904;54.350;18.664;2023-07-29T13:19:59;1.58;;;1.48;;
18320;SDS011;54904;54.350;18.664;2023-07-29T13:22:26;2.65;;;1.60;;
18320;SDS011;54904;54.350;18.664;2023-07-29T13:24:53;1.65;;;1.58;;
18320;SDS011;54904;54.350;18.664;2023-07-29T13:27:21;1.55;;;1.55;;
18320;SDS011;54904;54.350;18.664;2023-07-29T13:29:49;1.45;;;1.40;;
18320;SDS011;54904;54.350;18.664;2023-07-29T13:32:18;1.88;;;1.30;;
18320;SDS011;54904;54.350;18.664;2023-07-29T13:34:45;1.85;;;1.75;;
18320;SDS011;54904;54.350;18.664;2023-07-29T13:37:12;1.75;;;1.55;;
18320;SDS011;54904;54.350;18.664;2023-07-29T13:39:39;1.48;;;1.48;;
18320;SDS011;54904;54.350;18.664;2023-07-29T13:42:06;1.20;;;1.20;;
18320;SDS011;54904;54.350;18.664;2023-07-29T13:44:33;1.40;;;1.40;;
18320;SDS011;54904;54.350;18.664;2023-07-29T13:47:00;1.70;;;1.60;;
18320;SDS011;54904;54.350;18.664;2023-07-29T13:49:29;1.70;;;1.67;;
18320;SDS011;54904;54.350;18.664;2023-07-29T13:51:56;3.83;;;2.05;;
18320;SDS011;54904;54.350;18.664;2023-07-29T13:54:23;1.80;;;1.70;;
18320;SDS011;54904;54.350;18.664;2023-07-29T13:56:54;1.67;;;1.58;;
18320;SDS011;54904;54.350;18.664;2023-07-29T13:59:21;1.60;;;1.50;;
18320;SDS011;54904;54.350;18.664;2023-07-29T14:01:48;1.38;;;1.38;;
18320;SDS011;54904;54.350;18.664;2023-07-29T14:04:15;1.45;;;1.42;;
18320;SDS011;54904;54.350;18.664;2023-07-29T14:06:44;1.35;;;1.33;;
18320;SDS011;54904;54.350;18.664;2023-07-29T14:09:11;1.30;;;1.30;;
18320;SDS011;54904;54.350;18.664;2023-07-29T14:11:38;1.40;;;1.35;;
18320;SDS011;54904;54.350;18.664;2023-07-29T14:14:06;1.40;;;1.40;;
18320;SDS011;54904;54.350;18.664;2023-07-29T14:16:34;1.35;;;1.25;;
18320;SDS011;54904;54.350;18.664;2023-07-29T14:19:01;1.20;;;1.20;;
18320;SDS011;54904;54.350;18.664;2023-07-29T14:21:28;1.73;;;1.25;;
18320;SDS011;54904;54.350;18.664;2023-07-29T14:23:57;2.67;;;1.30;;
18320;SDS011;54904;54.350;18.664;2023-07-29T14:26:24;1.70;;;1.60;;
18320;SDS011;54904;54.350;18.664;2023-07-29T14:28:51;1.80;;;1.70;;
18320;SDS011;54904;54.350;18.664;2023-07-29T14:31:18;1.60;;;1.50;;
18320;SDS011;54904;54.350;18.664;2023-07-29T14:33:45;1.63;;;1.52;;
18320;SDS011;54904;54.350;18.664;2023-07-29T14:36:12;1.80;;;1.70;;
18320;SDS011;54904;54.350;18.664;2023-07-29T14:38:39;1.83;;;1.73;;
18320;SDS011;54904;54.350;18.664;2023-07-29T14:41:08;1.80;;;1.70;;
18320;SDS011;54904;54.350;18.664;2023-07-29T14:43:35;1.55;;;1.50;;
18320;SDS011;54904;54.350;18.664;2023-07-29T14:46:02;1.70;;;1.55;;